VYMD/MDL METAR and TAF weather

Enter ICAO airport designator
Station Type Date Time Source
VYMD METAR 2018/12/15 13:30 UTC NOAA

VYMD 151330Z 30006KT 5000 HZ BKN018 BKN120 24/17 Q1016


Station Type Date Time Source
VYMD Decoded METAR 2018/12/15 13:30 UTC NOAA

Station name not available
Dec 15, 2018 - 08:30 AM EST / 2018.12.15 1330 UTC
Wind: from the WNW (300 degrees) at 7 MPH (6 KT):0
Visibility: 3 mile(s):0
Sky conditions: mostly cloudy
Weather: haze
Temperature: 75 F (24 C)
Dew Point: 62 F (17 C)
Relative Humidity: 64%
Pressure (altimeter): 30.00 in. Hg (1016 hPa)
ob: VYMD 151330Z 30006KT 5000 HZ BKN018 BKN120 24/17 Q1016
cycle: 13

Station Type Date Time Source
VYMD TAF 2018/12/15 06:00 UTC NOAA

TAF VYMD 150500Z 1506/1606 32006KT 7000 BKN020 FEW025CB
TEMPO 1506/1512 36007KT 6000 BKN020 FEW025CB SCT120


Example: see airport list